Yasemin — 9HA2114 — position and weather

sailwx.info

Track history (hours):
 
Tides and Currents Weather Stations Pressure Air Temp Water Temp Dewpoint Dewpoint Depression Visibility Wind Speed Wind Dir Waves Ship Positions

Yasemin

Last reported at 2015-Apr-01 14:31 UTC. Time now 2015-Apr-21 11:41 UTC.
Position N 07°58' W 014°12'.
Warning: this ship's position is 19 days out of date.

Length 105 m; draft 7 m.

Type: Cargo ship. MMSI: 249988000.

Date/timePositionNaut miles runAvg speedWind from/ knotsBaromVisibWave heightAir tempDewpointWater temp
2015-Apr-01 14:31N 07°58' W 014°12'8812.1
2015-Apr-01 07:18N 08°51' W 015°22'2112.2
2015-Apr-01 05:33N 09°04' W 015°40'1411.7
2015-Apr-01 04:23N 09°13' W 015°50'2611.9
2015-Apr-01 02:12N 09°32' W 016°07'  
2015-Mar-27 22:15N 28°14' W 013°05'  
2015-Mar-23 13:33N 36°58' E 003°22'1211.4
2015-Mar-23 12:33N 36°59' E 003°36'1211.5
2015-Mar-23 11:33N 36°60' E 003°51'  
Track history (hours):
 
Tides and Currents Weather Stations Pressure Air Temp Water Temp Dewpoint Dewpoint Depression Visibility Wind Speed Wind Dir Waves Ship Positions

Yasemin

Last reported at 2015-Apr-01 14:31 UTC. Time now 2015-Apr-21 11:41 UTC.
Position N 07°58' W 014°12'.
Warning: this ship's position is 19 days out of date.

Length 105 m; draft 7 m.

Type: Cargo ship. MMSI: 249988000.

Date/timePositionNaut miles runAvg speedWind from/ knotsBaromVisibWave heightAir tempDewpointWater temp
2015-Apr-01 14:31N 07°58' W 014°12'8812.1
2015-Apr-01 07:18N 08°51' W 015°22'2112.2
2015-Apr-01 05:33N 09°04' W 015°40'1411.7
2015-Apr-01 04:23N 09°13' W 015°50'2611.9
2015-Apr-01 02:12N 09°32' W 016°07'  
2015-Mar-27 22:15N 28°14' W 013°05'  
2015-Mar-23 13:33N 36°58' E 003°22'1211.4
2015-Mar-23 12:33N 36°59' E 003°36'1211.5
2015-Mar-23 11:33N 36°60' E 003°51'  

Dump ship's entire track history